createdAt,value
2023-04-24T00:00:22.708Z,97231.06
2023-04-24T00:03:10.503Z,97240.91
2023-04-24T00:06:00.070Z,97241.66
2023-04-24T00:08:47.564Z,97237.56
2023-04-24T00:11:36.451Z,97229.75
2023-04-24T00:14:24.286Z,97255.44
2023-04-24T00:17:11.991Z,97259.03
2023-04-24T00:20:00.206Z,97274.19
2023-04-24T00:22:48.349Z,97281.06
2023-04-24T00:25:35.894Z,97280.72
2023-04-24T00:28:24.862Z,97269.69
2023-04-24T00:31:12.647Z,97265.13
2023-04-24T00:34:00.701Z,97261.16
2023-04-24T00:36:50.066Z,97278.84
2023-04-24T00:39:37.613Z,97276.47
2023-04-24T00:42:25.141Z,97279.31
2023-04-24T00:45:14.833Z,97276.75
2023-04-24T00:48:03.667Z,97257.59
2023-04-24T00:50:51.413Z,97249.44
2023-04-24T00:53:38.988Z,97256.84
2023-04-24T00:56:26.697Z,97269.97
2023-04-24T00:59:15.474Z,97254.91
2023-04-24T01:02:04.826Z,97241.94
2023-04-24T01:04:53.754Z,97241.56
2023-04-24T01:07:45.081Z,97240.72
2023-04-24T01:10:35.387Z,97241.94
2023-04-24T01:13:23.132Z,97244.59
2023-04-24T01:16:10.923Z,97241.94
2023-04-24T01:19:00.294Z,97238.59
2023-04-24T01:21:52.809Z,97227.31
2023-04-24T01:24:42.324Z,97238.97
2023-04-24T01:27:32.078Z,97242.66
2023-04-24T01:30:20.112Z,97241.16
2023-04-24T01:33:07.748Z,97256.00
2023-04-24T01:35:56.648Z,97258.41
2023-04-24T01:38:44.117Z,97252.72
2023-04-24T01:41:33.556Z,97257.69
2023-04-24T01:44:21.537Z,97247.13
2023-04-24T01:47:09.580Z,97252.72
2023-04-24T01:49:56.965Z,97256.19
2023-04-24T01:52:44.530Z,97271.69
2023-04-24T01:55:32.271Z,97271.91
2023-04-24T01:58:21.211Z,97261.84
2023-04-24T02:01:09.439Z,97260.84
2023-04-24T02:03:57.911Z,97243.06
2023-04-24T02:06:45.638Z,97236.19
2023-04-24T02:09:33.421Z,97231.72
2023-04-24T02:12:21.754Z,97221.09
2023-04-24T02:15:12.686Z,97204.13
2023-04-24T02:18:00.367Z,97211.13
2023-04-24T02:20:48.351Z,97214.22
2023-04-24T02:23:36.358Z,97202.31
2023-04-24T02:26:24.004Z,97198.00
2023-04-24T02:29:11.593Z,97204.31
2023-04-24T02:32:03.400Z,97202.22
2023-04-24T02:34:50.904Z,97203.41
2023-04-24T02:37:38.303Z,97199.09
2023-04-24T02:40:25.801Z,97195.44
2023-04-24T02:43:13.275Z,97194.81
2023-04-24T02:46:01.292Z,97198.44
2023-04-24T02:48:50.608Z,97199.47
2023-04-24T02:51:42.024Z,97187.38
2023-04-24T02:54:29.942Z,97190.03
2023-04-24T02:57:17.361Z,97193.03
2023-04-24T03:00:08.239Z,97194.03
2023-04-24T03:02:55.977Z,97190.56
2023-04-24T03:05:45.618Z,97189.28
2023-04-24T03:08:33.148Z,97188.63
2023-04-24T03:11:20.822Z,97187.00
2023-04-24T03:14:08.322Z,97186.34
2023-04-24T03:16:57.578Z,97185.06
2023-04-24T03:19:45.587Z,97189.06
2023-04-24T03:22:35.000Z,97195.75
2023-04-24T03:25:22.692Z,97195.44
2023-04-24T03:28:10.518Z,97194.78
2023-04-24T03:30:58.016Z,97191.66
2023-04-24T03:33:45.417Z,97208.41
2023-04-24T03:36:33.103Z,97214.78
2023-04-24T03:39:22.188Z,97207.53
2023-04-24T03:42:10.103Z,97203.59
2023-04-24T03:44:57.502Z,97190.16
2023-04-24T03:47:45.151Z,97193.81
2023-04-24T03:50:32.631Z,97193.81
2023-04-24T03:53:20.768Z,97205.59
2023-04-24T03:56:10.152Z,97202.75
2023-04-24T03:58:57.804Z,97205.31
2023-04-24T04:01:46.421Z,97210.78
2023-04-24T04:04:34.575Z,97210.97
2023-04-24T04:07:22.279Z,97199.69
2023-04-24T04:10:10.699Z,97209.50
2023-04-24T04:13:00.135Z,97213.47
2023-04-24T04:15:48.017Z,97206.88
2023-04-24T04:18:36.074Z,97213.38
2023-04-24T04:21:24.021Z,97210.06
2023-04-24T04:24:11.578Z,97207.13
2023-04-24T04:26:59.352Z,97209.97
2023-04-24T04:29:48.077Z,97211.13
2023-04-24T04:32:36.325Z,97214.28
2023-04-24T04:35:23.906Z,97211.63
2023-04-24T04:38:11.868Z,97215.13
2023-04-24T04:40:59.726Z,97218.44
2023-04-24T04:43:47.496Z,97208.53
2023-04-24T04:46:38.212Z,97212.97
2023-04-24T04:49:26.543Z,97219.47
2023-04-24T04:52:14.323Z,97215.97
2023-04-24T04:55:01.818Z,97220.84
2023-04-24T04:57:49.616Z,97222.44
2023-04-24T05:00:38.374Z,97222.81
2023-04-24T05:03:27.644Z,97238.34
2023-04-24T05:06:16.071Z,97246.31
2023-04-24T05:09:04.413Z,97239.84
2023-04-24T05:11:51.981Z,97247.63
2023-04-24T05:14:39.733Z,97247.91
2023-04-24T05:17:27.596Z,97250.53
2023-04-24T05:20:16.634Z,97261.34
2023-04-24T05:23:04.314Z,97267.47
2023-04-24T05:25:51.983Z,97274.41
2023-04-24T05:28:39.735Z,97277.38
2023-04-24T05:31:27.435Z,97278.34
2023-04-24T05:34:15.166Z,97278.56
2023-04-24T05:37:04.465Z,97288.59
2023-04-24T05:39:52.115Z,97296.53
2023-04-24T05:42:39.484Z,97297.94
2023-04-24T05:45:27.991Z,97302.88
2023-04-24T05:48:15.611Z,97296.09
2023-04-24T05:51:03.025Z,97299.00
2023-04-24T05:53:51.785Z,97307.91
2023-04-24T05:56:41.246Z,97310.56
2023-04-24T05:59:30.531Z,97312.69
2023-04-24T06:02:18.519Z,97303.53
2023-04-24T06:05:07.196Z,97312.09
2023-04-24T06:07:55.374Z,97313.94
2023-04-24T06:10:44.216Z,97317.34
2023-04-24T06:13:31.933Z,97317.97
2023-04-24T06:16:19.863Z,97316.47
2023-04-24T06:19:07.536Z,97317.34
2023-04-24T06:21:54.968Z,97323.59
2023-04-24T06:24:42.630Z,97320.03
2023-04-24T06:27:31.730Z,97320.78
2023-04-24T06:30:19.257Z,97326.00
2023-04-24T06:33:19.641Z,97318.34
2023-04-24T06:36:08.699Z,97311.81
2023-04-24T06:38:56.617Z,97313.59
2023-04-24T06:41:44.134Z,97313.03
2023-04-24T06:44:38.683Z,97316.19
2023-04-24T06:47:26.142Z,97304.81
2023-04-24T06:50:13.829Z,97306.09
2023-04-24T06:53:01.676Z,97302.06
2023-04-24T06:55:49.781Z,97308.03
2023-04-24T06:58:37.336Z,97318.94
2023-04-24T07:01:26.500Z,97306.75
2023-04-24T07:04:14.653Z,97304.53
2023-04-24T07:07:02.619Z,97311.59
2023-04-24T07:09:50.073Z,97313.72
2023-04-24T07:12:38.482Z,97309.94
2023-04-24T07:15:26.257Z,97310.84
2023-04-24T07:18:15.371Z,97314.88
2023-04-24T07:21:02.905Z,97311.75
2023-04-24T07:23:50.430Z,97314.13
2023-04-24T07:26:38.052Z,97329.22
2023-04-24T07:29:25.810Z,97328.28
2023-04-24T07:32:13.372Z,97321.25
2023-04-24T07:35:02.336Z,97323.81
2023-04-24T07:37:50.214Z,97322.66
2023-04-24T07:40:37.942Z,97325.59
2023-04-24T07:43:25.687Z,97324.31
2023-04-24T07:46:13.441Z,97327.59
2023-04-24T07:49:12.364Z,97331.19
2023-04-24T07:52:03.569Z,97333.72
2023-04-24T07:54:51.765Z,97330.78
2023-04-24T07:57:39.809Z,97327.56
2023-04-24T08:00:27.558Z,97330.47
2023-04-24T08:03:15.813Z,97319.41
2023-04-24T08:06:03.890Z,97323.59
2023-04-24T08:08:53.268Z,97328.25
2023-04-24T08:11:40.871Z,97328.66
2023-04-24T08:14:28.286Z,97329.50
2023-04-24T08:17:15.802Z,97330.72
2023-04-24T08:20:03.623Z,97337.72
2023-04-24T08:22:51.342Z,97330.88
2023-04-24T08:25:40.375Z,97337.09
2023-04-24T08:28:28.184Z,97333.16
2023-04-24T08:31:15.943Z,97345.53
2023-04-24T08:34:03.538Z,97343.41
2023-04-24T08:36:51.750Z,97344.91
2023-04-24T08:39:39.503Z,97344.72
2023-04-24T08:42:34.237Z,97354.16
2023-04-24T08:45:22.020Z,97348.81
2023-04-24T08:48:23.440Z,97352.94
2023-04-24T08:51:16.156Z,97349.44
2023-04-24T08:54:05.165Z,97361.63
2023-04-24T08:57:01.953Z,97359.56
2023-04-24T08:59:52.584Z,97358.09
2023-04-24T09:02:45.264Z,97362.84
2023-04-24T09:05:33.138Z,97362.44
2023-04-24T09:08:21.968Z,97367.38
2023-04-24T09:11:11.481Z,97358.50
2023-04-24T09:13:59.999Z,97356.03
2023-04-24T09:16:50.357Z,97347.75
2023-04-24T09:19:37.796Z,97346.06
2023-04-24T09:22:26.018Z,97339.28
2023-04-24T09:25:13.741Z,97339.59
2023-04-24T09:28:04.089Z,97337.91
2023-04-24T09:31:05.736Z,97337.88
2023-04-24T09:34:01.753Z,97331.13
2023-04-24T09:36:50.355Z,97326.59
2023-04-24T09:39:37.888Z,97338.22
2023-04-24T09:42:31.515Z,97326.66
2023-04-24T09:45:19.555Z,97331.84
2023-04-24T09:48:08.815Z,97335.75
2023-04-24T09:50:57.913Z,97328.06
2023-04-24T09:53:48.937Z,97340.63
2023-04-24T09:56:40.404Z,97337.44
2023-04-24T09:59:29.492Z,97337.22
2023-04-24T10:02:22.160Z,97345.44
2023-04-24T10:05:13.948Z,97351.56
2023-04-24T10:08:10.551Z,97335.41
2023-04-24T10:10:58.229Z,97325.72
2023-04-24T10:13:46.265Z,97325.09
2023-04-24T10:16:34.585Z,97325.91
2023-04-24T10:19:23.939Z,97343.69
2023-04-24T10:22:12.756Z,97368.03
2023-04-24T10:25:02.134Z,97384.78
2023-04-24T10:27:51.753Z,97392.22
2023-04-24T10:30:39.320Z,97394.91
2023-04-24T10:33:28.820Z,97385.56
2023-04-24T10:36:18.970Z,97390.22
2023-04-24T10:39:13.512Z,97396.78
2023-04-24T10:42:03.012Z,97402.63
2023-04-24T10:44:51.060Z,97401.13
2023-04-24T10:47:43.265Z,97411.31
2023-04-24T10:50:44.423Z,97416.75
2023-04-24T10:53:33.287Z,97410.97
2023-04-24T10:56:23.417Z,97412.56
2023-04-24T10:59:12.574Z,97414.06
2023-04-24T11:02:00.721Z,97417.81
2023-04-24T11:04:53.224Z,97423.59
2023-04-24T11:08:16.927Z,97407.66
2023-04-24T11:11:12.357Z,97421.94
2023-04-24T11:14:12.173Z,97409.91
2023-04-24T11:17:00.801Z,97416.06
2023-04-24T11:19:54.575Z,97407.06
2023-04-24T11:22:43.267Z,97402.47
2023-04-24T11:25:33.850Z,97400.97
2023-04-24T11:28:21.656Z,97399.75
2023-04-24T11:31:42.051Z,97412.53
2023-04-24T11:34:29.655Z,97412.75
2023-04-24T11:37:18.127Z,97419.16
2023-04-24T11:40:08.805Z,97422.16
2023-04-24T11:42:57.186Z,97439.19
2023-04-24T11:45:51.041Z,97436.81
2023-04-24T11:48:41.262Z,97440.09
2023-04-24T11:51:33.818Z,97440.72
2023-04-24T11:54:27.606Z,97444.31
2023-04-24T11:57:15.084Z,97446.56
2023-04-24T12:00:04.563Z,97447.19
2023-04-24T12:02:54.118Z,97450.13
2023-04-24T12:05:43.293Z,97445.78
2023-04-24T12:08:32.066Z,97452.13
2023-04-24T12:11:20.244Z,97452.09
2023-04-24T12:14:13.429Z,97449.13
2023-04-24T12:17:01.325Z,97437.88
2023-04-24T12:19:51.597Z,97445.22
2023-04-24T12:22:48.748Z,97440.50
2023-04-24T12:25:37.179Z,97457.81
2023-04-24T12:28:26.269Z,97450.03
2023-04-24T12:31:14.125Z,97463.94
2023-04-24T12:34:02.267Z,97465.66
2023-04-24T12:36:50.762Z,97462.06
2023-04-24T12:39:40.032Z,97455.00
2023-04-24T12:42:29.347Z,97458.16
2023-04-24T12:45:18.912Z,97461.47
2023-04-24T12:48:07.162Z,97461.31
2023-04-24T12:50:54.939Z,97458.84
2023-04-24T12:53:42.736Z,97456.81
2023-04-24T12:56:32.120Z,97449.81
2023-04-24T12:59:19.838Z,97463.78
2023-04-24T13:02:07.960Z,97464.13
2023-04-24T13:04:55.875Z,97459.88
2023-04-24T13:07:43.521Z,97468.13
2023-04-24T13:10:31.683Z,97468.22
2023-04-24T13:13:21.134Z,97467.59
2023-04-24T13:16:08.737Z,97463.78
2023-04-24T13:18:56.445Z,97465.22
2023-04-24T13:21:43.986Z,97457.28
2023-04-24T13:24:32.203Z,97466.25
2023-04-24T13:27:22.369Z,97482.03
2023-04-24T13:30:13.498Z,97472.09
2023-04-24T13:33:01.490Z,97470.47
2023-04-24T13:35:49.363Z,97469.69
2023-04-24T13:38:37.200Z,97460.66
2023-04-24T13:41:25.259Z,97459.84
2023-04-24T13:44:12.870Z,97455.81
2023-04-24T13:47:01.907Z,97454.94
2023-04-24T13:49:49.312Z,97464.13
2023-04-24T13:52:36.950Z,97469.38
2023-04-24T13:55:25.009Z,97455.88
2023-04-24T13:58:12.907Z,97463.19
2023-04-24T14:01:00.452Z,97455.56
2023-04-24T14:03:49.653Z,97449.19
2023-04-24T14:06:37.769Z,97454.78
2023-04-24T14:09:25.398Z,97450.38
2023-04-24T14:12:13.694Z,97452.19
2023-04-24T14:15:02.506Z,97459.09
2023-04-24T14:17:51.053Z,97444.56
2023-04-24T14:20:40.065Z,97463.56
2023-04-24T14:23:28.007Z,97449.94
2023-04-24T14:26:15.690Z,97455.13
2023-04-24T14:29:14.101Z,97451.72
2023-04-24T14:32:02.783Z,97448.44
2023-04-24T14:34:50.536Z,97457.50
2023-04-24T14:37:42.143Z,97451.66
2023-04-24T14:40:56.118Z,97463.31
2023-04-24T14:43:40.114Z,97461.16
2023-04-24T14:46:28.174Z,97468.38
2023-04-24T14:49:20.850Z,97454.03
2023-04-24T14:52:08.272Z,97462.69
2023-04-24T14:54:57.184Z,97464.31
2023-04-24T14:57:45.100Z,97460.28
2023-04-24T15:00:33.460Z,97448.66
2023-04-24T15:03:24.230Z,97449.38
2023-04-24T15:06:11.922Z,97452.25
2023-04-24T15:08:59.454Z,97459.63
2023-04-24T15:11:48.792Z,97460.69
2023-04-24T15:14:36.643Z,97460.63
2023-04-24T15:17:24.198Z,97456.44
2023-04-24T15:20:12.249Z,97459.69
2023-04-24T15:23:00.812Z,97469.28
2023-04-24T15:25:48.761Z,97466.53
2023-04-24T15:28:37.546Z,97469.16
2023-04-24T15:31:25.118Z,97465.25
2023-04-24T15:34:12.739Z,97479.50
2023-04-24T15:37:00.557Z,97487.94
2023-04-24T15:39:48.477Z,97491.50
2023-04-24T15:42:36.575Z,97488.00
2023-04-24T15:45:26.657Z,97495.44
2023-04-24T15:48:14.398Z,97497.00
2023-04-24T15:51:02.401Z,97498.34
2023-04-24T15:53:50.042Z,97493.66
2023-04-24T15:56:38.039Z,97506.38
2023-04-24T15:59:25.944Z,97517.03
2023-04-24T16:02:19.009Z,97516.41
2023-04-24T16:05:08.839Z,97513.72
2023-04-24T16:07:57.589Z,97516.44
2023-04-24T16:10:52.789Z,97517.53
2023-04-24T16:13:40.482Z,97527.22
2023-04-24T16:16:29.067Z,97521.66
2023-04-24T16:19:19.679Z,97517.34
2023-04-24T16:22:07.293Z,97520.84
2023-04-24T16:24:55.083Z,97524.38
2023-04-24T16:27:42.748Z,97521.06
2023-04-24T16:30:30.604Z,97519.38
2023-04-24T16:33:18.862Z,97515.84
2023-04-24T16:36:08.963Z,97518.72
2023-04-24T16:38:56.593Z,97523.44
2023-04-24T16:41:47.430Z,97526.97
2023-04-24T16:44:34.961Z,97523.88
2023-04-24T16:47:22.715Z,97514.78
2023-04-24T16:50:12.825Z,97524.03
2023-04-24T16:53:05.373Z,97524.88
2023-04-24T16:55:53.180Z,97518.03
2023-04-24T16:58:41.195Z,97522.69
2023-04-24T17:01:32.208Z,97529.06
2023-04-24T17:04:21.226Z,97531.53
2023-04-24T17:07:09.101Z,97519.78
2023-04-24T17:09:58.221Z,97530.81
2023-04-24T17:12:46.231Z,97537.88
2023-04-24T17:15:35.347Z,97537.09
2023-04-24T17:18:24.321Z,97539.59
2023-04-24T17:21:14.382Z,97537.97
2023-04-24T17:24:17.329Z,97544.53
2023-04-24T17:27:14.940Z,97543.31
2023-04-24T17:30:03.592Z,97546.97
2023-04-24T17:32:55.124Z,97542.41
2023-04-24T17:35:45.484Z,97550.59
2023-04-24T17:38:33.424Z,97549.34
2023-04-24T17:41:21.735Z,97555.69
2023-04-24T17:44:11.148Z,97552.97
2023-04-24T17:46:58.811Z,97555.97
2023-04-24T17:49:46.390Z,97560.81
2023-04-24T17:52:34.978Z,97567.38
2023-04-24T17:55:22.572Z,97576.38
2023-04-24T17:58:10.578Z,97576.28
2023-04-24T18:00:59.963Z,97573.50
2023-04-24T18:03:47.581Z,97583.88
2023-04-24T18:06:35.410Z,97587.81
2023-04-24T18:09:22.918Z,97594.28
2023-04-24T18:12:10.642Z,97587.38
2023-04-24T18:15:12.993Z,97594.19
2023-04-24T18:18:03.899Z,97593.94
2023-04-24T18:20:52.034Z,97599.72
2023-04-24T18:23:39.893Z,97603.50
2023-04-24T18:26:27.360Z,97602.53
2023-04-24T18:29:15.219Z,97604.84
2023-04-24T18:32:04.905Z,97604.28
2023-04-24T18:34:54.145Z,97610.28
2023-04-24T18:37:41.967Z,97618.63
2023-04-24T18:40:29.490Z,97624.41
2023-04-24T18:43:17.063Z,97627.00
2023-04-24T18:46:04.657Z,97629.94
2023-04-24T18:48:52.490Z,97619.09
2023-04-24T18:51:53.021Z,97633.25
2023-04-24T18:54:41.251Z,97636.88
2023-04-24T18:57:29.818Z,97630.22
2023-04-24T19:00:18.778Z,97643.59
2023-04-24T19:03:08.692Z,97648.94
2023-04-24T19:05:56.733Z,97651.19
2023-04-24T19:08:47.481Z,97656.75
2023-04-24T19:11:35.723Z,97660.63
2023-04-24T19:14:23.660Z,97656.81
2023-04-24T19:17:11.232Z,97668.66
2023-04-24T19:19:58.737Z,97667.88
2023-04-24T19:22:47.464Z,97672.38
2023-04-24T19:25:37.101Z,97679.69
2023-04-24T19:28:24.497Z,97687.19
2023-04-24T19:31:11.989Z,97690.88
2023-04-24T19:33:55.171Z,97683.91
2023-04-24T19:36:43.678Z,97686.91
2023-04-24T19:39:38.367Z,97693.06
2023-04-24T19:42:42.584Z,97693.22
2023-04-24T19:45:35.174Z,97685.06
2023-04-24T19:48:30.891Z,97689.22
2023-04-24T19:51:22.340Z,97692.88
2023-04-24T19:54:10.655Z,97690.38
2023-04-24T19:56:58.697Z,97690.56
2023-04-24T19:59:48.124Z,97699.16
2023-04-24T20:02:36.244Z,97689.88
2023-04-24T20:05:24.060Z,97692.53
2023-04-24T20:08:14.496Z,97698.81
2023-04-24T20:11:12.120Z,97691.19
2023-04-24T20:14:03.579Z,97690.34
2023-04-24T20:16:54.284Z,97699.97
2023-04-24T20:19:45.645Z,97694.97
2023-04-24T20:22:38.728Z,97690.47
2023-04-24T20:25:26.908Z,97693.44
2023-04-24T20:28:17.198Z,97688.78
2023-04-24T20:31:06.977Z,97686.09
2023-04-24T20:33:59.325Z,97688.56
2023-04-24T20:36:49.927Z,97682.13
2023-04-24T20:39:44.392Z,97678.28
2023-04-24T20:42:32.530Z,97681.44
2023-04-24T20:45:20.269Z,97673.09
2023-04-24T20:48:09.820Z,97674.78
2023-04-24T20:50:58.941Z,97675.22
2023-04-24T20:53:49.263Z,97669.75
2023-04-24T20:56:36.960Z,97668.28
2023-04-24T20:59:24.865Z,97671.56
2023-04-24T21:02:12.729Z,97678.97
2023-04-24T21:05:00.351Z,97672.22
2023-04-24T21:07:51.419Z,97668.72
2023-04-24T21:10:39.470Z,97665.72
2023-04-24T21:13:27.096Z,97670.16
2023-04-24T21:16:14.722Z,97664.06
2023-04-24T21:19:02.427Z,97664.38
2023-04-24T21:21:49.849Z,97659.06
2023-04-24T21:24:38.867Z,97666.03
2023-04-24T21:27:26.668Z,97655.75
2023-04-24T21:30:14.698Z,97666.34
2023-04-24T21:33:02.391Z,97664.69
2023-04-24T21:35:50.545Z,97662.19
2023-04-24T21:38:39.825Z,97663.50
2023-04-24T21:41:28.877Z,97656.38
2023-04-24T21:44:16.626Z,97654.88
2023-04-24T21:47:04.614Z,97657.69
2023-04-24T21:49:52.673Z,97652.06
2023-04-24T21:52:40.582Z,97648.09
2023-04-24T21:55:28.434Z,97653.13
2023-04-24T21:58:17.592Z,97652.28
2023-04-24T22:01:05.838Z,97653.97
2023-04-24T22:03:53.996Z,97649.50
2023-04-24T22:06:42.138Z,97650.06
2023-04-24T22:09:29.670Z,97650.31
2023-04-24T22:12:17.665Z,97644.91
2023-04-24T22:15:08.572Z,97645.88
2023-04-24T22:17:57.585Z,97645.44
2023-04-24T22:20:46.503Z,97638.47
2023-04-24T22:23:34.580Z,97636.97
2023-04-24T22:26:22.163Z,97637.81
2023-04-24T22:29:09.633Z,97636.50
2023-04-24T22:31:58.761Z,97640.78
2023-04-24T22:34:46.706Z,97637.53
2023-04-24T22:37:34.521Z,97625.78
2023-04-24T22:40:22.460Z,97630.75
2023-04-24T22:43:10.510Z,97626.97
2023-04-24T22:45:59.424Z,97622.50
2023-04-24T22:48:49.716Z,97629.16
2023-04-24T22:51:38.184Z,97626.66
2023-04-24T22:54:26.459Z,97626.66
2023-04-24T22:57:15.047Z,97624.81
2023-04-24T23:00:02.693Z,97623.84
2023-04-24T23:02:50.787Z,97615.75
2023-04-24T23:05:39.803Z,97615.06
2023-04-24T23:08:27.146Z,97604.31
2023-04-24T23:11:14.774Z,97612.25
2023-04-24T23:14:03.839Z,97615.75
2023-04-24T23:16:51.792Z,97603.78
2023-04-24T23:19:39.599Z,97601.00
2023-04-24T23:22:29.119Z,97601.00
2023-04-24T23:25:17.053Z,97609.78
2023-04-24T23:28:04.833Z,97605.47
2023-04-24T23:30:52.311Z,97597.22
2023-04-24T23:33:39.884Z,97598.88
2023-04-24T23:36:27.737Z,97592.56
2023-04-24T23:39:16.849Z,97585.63
2023-04-24T23:42:04.409Z,97581.31
2023-04-24T23:44:52.170Z,97576.84
2023-04-24T23:47:40.024Z,97581.50
2023-04-24T23:50:28.205Z,97579.66
2023-04-24T23:53:16.867Z,97584.28
2023-04-24T23:56:06.063Z,97576.66
2023-04-24T23:58:53.872Z,97571.53
